Main page
METAR-TAF:

METAR-TAF

Airports :

Ghriss Airport

Ghriss, Algeria

latitude: 35-12N, longitude: 000-08E, elevation: 514 m

Current weather observation

The report was made 1 hour and 3 minutes ago, at 08:00 UTC
Wind 1 kt from the West/Southwest
Temperature 25°C
Humidity 41%
Pressure 1019 hPa
Visibility 10 km or more
no clouds below 1500 m and no cumulonimbus

METAR: DAOV 150800Z 24001KT CAVOK 25/11 Q1019

Time: 10:03 (09:03 UTC)

Forecast

The report was made 1 hour and 3 minutes ago, at 08:00 UTC
Forecast valid from 15 at 09 UTC to 15 at 18 UTC
Wind 2 kt from variable directions
Visibility 10 km or more
no clouds below 1500 m and no cumulonimbus
Becoming
from 15 at 10 UTC to 15 at 12 UTC
Wind 12 kt from the North/Northwest

TAF: DAOV 150800Z 1509/1518 VRB02KT CAVOK BECMG 1510/1512 34012KT

Weather observations and forecasts of more than 4000 airports (METAR and TAF reports).

The available stations are represented by yellow and red dots on the map.

Hover mouse over dot to see the name of the station.

Then click to see weather observations and forecasts.

To change the map : click on the green buttons with a black cross to zoom in, on the green button with a dash to zoom out, or on the green arrows for adjacent maps.


METAR-TAF: